Terminal Aerodrome Forecast
Issued by NWS

Home | Current Version | Previous Version | Graphics & Text | Print | Product List | Glossary On
Versions: 1 2 3 4 5 6 7 8 9 10 11 12 13 14 15 16 17
347
FTUS43 KMPX 232325
TAFRWF
TAF
KRWF 232325Z 2400/2424 15013KT P6SM VCSH SCT030 BKN035
     FM240400 18009KT P6SM VCTS SCT040 BKN070CB
     FM240700 27008KT P6SM SKC
     FM241700 30012G18KT P6SM FEW250=

USA.gov is the U.S. government's official web portal to all federal, state and local government web resources and services.